sensor_id;sensor_type;location;lat;lon;timestamp;P1;durP1;ratioP1;P2;durP2;ratioP2
8293;SDS011;4185;41.506;24.938;2022-10-16T00:00:34;8.20;;;6.27;;
8293;SDS011;4185;41.506;24.938;2022-10-16T00:03:02;7.10;;;6.23;;
8293;SDS011;4185;41.506;24.938;2022-10-16T00:05:29;10.13;;;6.27;;
8293;SDS011;4185;41.506;24.938;2022-10-16T00:07:56;8.50;;;5.90;;
8293;SDS011;4185;41.506;24.938;2022-10-16T00:10:24;11.00;;;6.07;;
8293;SDS011;4185;41.506;24.938;2022-10-16T00:12:51;6.27;;;5.17;;
8293;SDS011;4185;41.506;24.938;2022-10-16T00:15:18;5.93;;;5.33;;
8293;SDS011;4185;41.506;24.938;2022-10-16T00:17:44;7.17;;;5.90;;
8293;SDS011;4185;41.506;24.938;2022-10-16T00:20:11;6.40;;;5.73;;
8293;SDS011;4185;41.506;24.938;2022-10-16T00:22:38;8.00;;;5.93;;
8293;SDS011;4185;41.506;24.938;2022-10-16T00:25:05;6.50;;;5.67;;
8293;SDS011;4185;41.506;24.938;2022-10-16T00:27:34;7.47;;;5.23;;
8293;SDS011;4185;41.506;24.938;2022-10-16T00:30:00;8.37;;;6.13;;
8293;SDS011;4185;41.506;24.938;2022-10-16T00:32:28;6.63;;;5.93;;
8293;SDS011;4185;41.506;24.938;2022-10-16T00:34:55;8.27;;;5.83;;
8293;SDS011;4185;41.506;24.938;2022-10-16T00:37:22;7.47;;;5.70;;
8293;SDS011;4185;41.506;24.938;2022-10-16T00:39:48;6.70;;;5.93;;
8293;SDS011;4185;41.506;24.938;2022-10-16T00:42:16;9.13;;;5.97;;
8293;SDS011;4185;41.506;24.938;2022-10-16T00:44:47;7.47;;;6.00;;
8293;SDS011;4185;41.506;24.938;2022-10-16T00:47:19;6.77;;;5.83;;
8293;SDS011;4185;41.506;24.938;2022-10-16T00:49:49;8.90;;;5.63;;
8293;SDS011;4185;41.506;24.938;2022-10-16T00:52:18;6.97;;;6.17;;
8293;SDS011;4185;41.506;24.938;2022-10-16T00:54:46;6.83;;;5.80;;
8293;SDS011;4185;41.506;24.938;2022-10-16T00:57:14;6.70;;;6.00;;
8293;SDS011;4185;41.506;24.938;2022-10-16T00:59:41;6.23;;;5.63;;
8293;SDS011;4185;41.506;24.938;2022-10-16T01:02:10;7.13;;;6.40;;
8293;SDS011;4185;41.506;24.938;2022-10-16T01:04:40;6.97;;;6.20;;
8293;SDS011;4185;41.506;24.938;2022-10-16T01:07:10;6.77;;;6.03;;
8293;SDS011;4185;41.506;24.938;2022-10-16T01:09:46;7.53;;;5.90;;
8293;SDS011;4185;41.506;24.938;2022-10-16T01:12:20;7.10;;;6.40;;
8293;SDS011;4185;41.506;24.938;2022-10-16T01:14:53;9.30;;;6.30;;
8293;SDS011;4185;41.506;24.938;2022-10-16T01:17:28;6.67;;;5.97;;
8293;SDS011;4185;41.506;24.938;2022-10-16T01:20:03;7.57;;;5.90;;
8293;SDS011;4185;41.506;24.938;2022-10-16T01:22:38;7.07;;;5.87;;
8293;SDS011;4185;41.506;24.938;2022-10-16T01:25:15;8.50;;;6.20;;
8293;SDS011;4185;41.506;24.938;2022-10-16T01:27:51;7.10;;;5.40;;
8293;SDS011;4185;41.506;24.938;2022-10-16T01:30:21;6.43;;;5.83;;
8293;SDS011;4185;41.506;24.938;2022-10-16T01:32:52;8.30;;;6.03;;
8293;SDS011;4185;41.506;24.938;2022-10-16T01:35:24;12.47;;;6.80;;
8293;SDS011;4185;41.506;24.938;2022-10-16T01:37:56;6.97;;;6.13;;
8293;SDS011;4185;41.506;24.938;2022-10-16T01:40:28;7.03;;;6.03;;
8293;SDS011;4185;41.506;24.938;2022-10-16T01:43:01;7.50;;;6.07;;
8293;SDS011;4185;41.506;24.938;2022-10-16T01:45:31;7.77;;;6.30;;
8293;SDS011;4185;41.506;24.938;2022-10-16T01:48:00;8.07;;;5.87;;
8293;SDS011;4185;41.506;24.938;2022-10-16T01:50:29;7.63;;;5.83;;
8293;SDS011;4185;41.506;24.938;2022-10-16T01:53:00;7.67;;;6.10;;
8293;SDS011;4185;41.506;24.938;2022-10-16T01:55:31;6.93;;;6.10;;
8293;SDS011;4185;41.506;24.938;2022-10-16T01:58:02;8.40;;;5.70;;
8293;SDS011;4185;41.506;24.938;2022-10-16T02:00:33;6.87;;;6.07;;
8293;SDS011;4185;41.506;24.938;2022-10-16T02:03:02;6.97;;;5.93;;
8293;SDS011;4185;41.506;24.938;2022-10-16T02:05:30;8.87;;;6.60;;
8293;SDS011;4185;41.506;24.938;2022-10-16T02:08:03;6.43;;;5.70;;
8293;SDS011;4185;41.506;24.938;2022-10-16T02:10:30;7.90;;;6.30;;
8293;SDS011;4185;41.506;24.938;2022-10-16T02:13:00;8.77;;;6.10;;
8293;SDS011;4185;41.506;24.938;2022-10-16T02:15:35;8.07;;;6.27;;
8293;SDS011;4185;41.506;24.938;2022-10-16T02:18:02;7.77;;;6.07;;
8293;SDS011;4185;41.506;24.938;2022-10-16T02:20:32;7.23;;;5.77;;
8293;SDS011;4185;41.506;24.938;2022-10-16T02:23:03;8.67;;;6.63;;
8293;SDS011;4185;41.506;24.938;2022-10-16T02:25:30;8.37;;;6.17;;
8293;SDS011;4185;41.506;24.938;2022-10-16T02:28:01;8.73;;;6.77;;
8293;SDS011;4185;41.506;24.938;2022-10-16T02:30:34;7.20;;;6.30;;
8293;SDS011;4185;41.506;24.938;2022-10-16T02:33:06;8.03;;;6.43;;
8293;SDS011;4185;41.506;24.938;2022-10-16T02:35:36;8.80;;;6.43;;
8293;SDS011;4185;41.506;24.938;2022-10-16T02:38:04;6.27;;;5.53;;
8293;SDS011;4185;41.506;24.938;2022-10-16T02:40:32;6.77;;;6.00;;
8293;SDS011;4185;41.506;24.938;2022-10-16T02:42:59;7.60;;;4.83;;
8293;SDS011;4185;41.506;24.938;2022-10-16T02:45:30;6.87;;;5.73;;
8293;SDS011;4185;41.506;24.938;2022-10-16T02:47:57;7.30;;;5.77;;
8293;SDS011;4185;41.506;24.938;2022-10-16T02:50:24;8.50;;;6.30;;
8293;SDS011;4185;41.506;24.938;2022-10-16T02:52:51;6.43;;;5.83;;
8293;SDS011;4185;41.506;24.938;2022-10-16T02:55:18;7.57;;;5.70;;
8293;SDS011;4185;41.506;24.938;2022-10-16T02:57:44;8.03;;;5.17;;
8293;SDS011;4185;41.506;24.938;2022-10-16T03:00:12;6.13;;;5.53;;
8293;SDS011;4185;41.506;24.938;2022-10-16T03:02:42;6.40;;;5.53;;
8293;SDS011;4185;41.506;24.938;2022-10-16T03:05:10;7.60;;;6.10;;
8293;SDS011;4185;41.506;24.938;2022-10-16T03:07:36;6.87;;;6.17;;
8293;SDS011;4185;41.506;24.938;2022-10-16T03:10:04;6.83;;;5.93;;
8293;SDS011;4185;41.506;24.938;2022-10-16T03:12:31;8.17;;;5.53;;
8293;SDS011;4185;41.506;24.938;2022-10-16T03:14:58;8.73;;;6.50;;
8293;SDS011;4185;41.506;24.938;2022-10-16T03:17:25;7.07;;;6.37;;
8293;SDS011;4185;41.506;24.938;2022-10-16T03:19:54;7.33;;;6.17;;
8293;SDS011;4185;41.506;24.938;2022-10-16T03:22:20;8.20;;;6.13;;
8293;SDS011;4185;41.506;24.938;2022-10-16T03:24:47;9.50;;;6.37;;
8293;SDS011;4185;41.506;24.938;2022-10-16T03:27:14;7.80;;;6.27;;
8293;SDS011;4185;41.506;24.938;2022-10-16T03:29:41;9.83;;;6.73;;
8293;SDS011;4185;41.506;24.938;2022-10-16T03:32:08;9.57;;;6.87;;
8293;SDS011;4185;41.506;24.938;2022-10-16T03:34:34;8.97;;;5.93;;
8293;SDS011;4185;41.506;24.938;2022-10-16T03:37:03;8.20;;;6.10;;
8293;SDS011;4185;41.506;24.938;2022-10-16T03:39:30;7.20;;;5.63;;
8293;SDS011;4185;41.506;24.938;2022-10-16T03:41:56;6.73;;;5.80;;
8293;SDS011;4185;41.506;24.938;2022-10-16T03:44:23;7.40;;;6.10;;
8293;SDS011;4185;41.506;24.938;2022-10-16T03:46:50;6.77;;;5.67;;
8293;SDS011;4185;41.506;24.938;2022-10-16T03:49:17;6.30;;;5.70;;
8293;SDS011;4185;41.506;24.938;2022-10-16T03:51:44;6.97;;;5.60;;
8293;SDS011;4185;41.506;24.938;2022-10-16T03:54:12;6.63;;;5.97;;
8293;SDS011;4185;41.506;24.938;2022-10-16T03:56:39;9.40;;;6.83;;
8293;SDS011;4185;41.506;24.938;2022-10-16T03:59:06;10.33;;;7.80;;
8293;SDS011;4185;41.506;24.938;2022-10-16T04:01:33;9.17;;;6.70;;
8293;SDS011;4185;41.506;24.938;2022-10-16T04:04:00;8.23;;;5.73;;
8293;SDS011;4185;41.506;24.938;2022-10-16T04:06:26;20.47;;;11.33;;
8293;SDS011;4185;41.506;24.938;2022-10-16T04:08:53;18.80;;;10.53;;
8293;SDS011;4185;41.506;24.938;2022-10-16T04:11:21;21.60;;;11.53;;
8293;SDS011;4185;41.506;24.938;2022-10-16T04:13:48;12.23;;;8.53;;
8293;SDS011;4185;41.506;24.938;2022-10-16T04:16:15;10.03;;;7.03;;
8293;SDS011;4185;41.506;24.938;2022-10-16T04:18:42;8.93;;;7.37;;
8293;SDS011;4185;41.506;24.938;2022-10-16T04:21:09;14.70;;;10.77;;
8293;SDS011;4185;41.506;24.938;2022-10-16T04:23:35;16.17;;;11.17;;
8293;SDS011;4185;41.506;24.938;2022-10-16T04:26:02;13.60;;;10.60;;
8293;SDS011;4185;41.506;24.938;2022-10-16T04:28:31;17.13;;;13.40;;
8293;SDS011;4185;41.506;24.938;2022-10-16T04:30:58;30.63;;;26.63;;
8293;SDS011;4185;41.506;24.938;2022-10-16T04:33:24;32.90;;;29.87;;
8293;SDS011;4185;41.506;24.938;2022-10-16T04:35:56;9.53;;;8.43;;
8293;SDS011;4185;41.506;24.938;2022-10-16T04:38:23;18.73;;;13.23;;
8293;SDS011;4185;41.506;24.938;2022-10-16T04:40:50;13.63;;;10.07;;
8293;SDS011;4185;41.506;24.938;2022-10-16T04:43:17;18.97;;;12.67;;
8293;SDS011;4185;41.506;24.938;2022-10-16T04:45:46;9.93;;;8.43;;
8293;SDS011;4185;41.506;24.938;2022-10-16T04:48:13;22.07;;;13.00;;
8293;SDS011;4185;41.506;24.938;2022-10-16T04:50:39;13.60;;;9.97;;
8293;SDS011;4185;41.506;24.938;2022-10-16T04:53:07;14.27;;;9.40;;
8293;SDS011;4185;41.506;24.938;2022-10-16T04:55:34;7.33;;;6.43;;
8293;SDS011;4185;41.506;24.938;2022-10-16T04:58:01;33.40;;;19.37;;
8293;SDS011;4185;41.506;24.938;2022-10-16T05:00:28;10.87;;;7.97;;
8293;SDS011;4185;41.506;24.938;2022-10-16T05:02:56;81.40;;;40.83;;
8293;SDS011;4185;41.506;24.938;2022-10-16T05:05:24;55.50;;;27.57;;
8293;SDS011;4185;41.506;24.938;2022-10-16T05:07:51;14.40;;;11.33;;
8293;SDS011;4185;41.506;24.938;2022-10-16T05:10:19;8.27;;;7.43;;
8293;SDS011;4185;41.506;24.938;2022-10-16T05:12:46;10.90;;;7.43;;
8293;SDS011;4185;41.506;24.938;2022-10-16T05:15:13;11.00;;;7.63;;
8293;SDS011;4185;41.506;24.938;2022-10-16T05:17:39;11.40;;;9.00;;
8293;SDS011;4185;41.506;24.938;2022-10-16T05:20:08;12.13;;;8.50;;
8293;SDS011;4185;41.506;24.938;2022-10-16T05:22:35;13.57;;;9.10;;
8293;SDS011;4185;41.506;24.938;2022-10-16T05:25:02;11.60;;;8.57;;
8293;SDS011;4185;41.506;24.938;2022-10-16T05:27:29;10.27;;;8.90;;
8293;SDS011;4185;41.506;24.938;2022-10-16T05:29:56;10.40;;;9.07;;
8293;SDS011;4185;41.506;24.938;2022-10-16T05:32:23;13.53;;;8.73;;
8293;SDS011;4185;41.506;24.938;2022-10-16T05:34:50;12.80;;;8.70;;
8293;SDS011;4185;41.506;24.938;2022-10-16T05:37:18;11.23;;;9.53;;
8293;SDS011;4185;41.506;24.938;2022-10-16T05:39:45;12.93;;;9.20;;
8293;SDS011;4185;41.506;24.938;2022-10-16T05:42:12;10.70;;;8.10;;
8293;SDS011;4185;41.506;24.938;2022-10-16T05:44:39;9.83;;;7.67;;
8293;SDS011;4185;41.506;24.938;2022-10-16T05:47:06;8.97;;;7.60;;
8293;SDS011;4185;41.506;24.938;2022-10-16T05:49:33;10.50;;;7.87;;
8293;SDS011;4185;41.506;24.938;2022-10-16T05:52:00;10.10;;;8.03;;
8293;SDS011;4185;41.506;24.938;2022-10-16T05:54:28;11.37;;;8.13;;
8293;SDS011;4185;41.506;24.938;2022-10-16T05:56:55;14.73;;;9.33;;
8293;SDS011;4185;41.506;24.938;2022-10-16T05:59:22;10.00;;;7.77;;
8293;SDS011;4185;41.506;24.938;2022-10-16T06:01:48;12.70;;;8.47;;
8293;SDS011;4185;41.506;24.938;2022-10-16T06:04:15;11.10;;;7.63;;
8293;SDS011;4185;41.506;24.938;2022-10-16T06:06:42;11.80;;;8.90;;
8293;SDS011;4185;41.506;24.938;2022-10-16T06:09:09;10.37;;;8.00;;
8293;SDS011;4185;41.506;24.938;2022-10-16T06:11:37;14.10;;;10.10;;
8293;SDS011;4185;41.506;24.938;2022-10-16T06:14:04;12.83;;;9.17;;
8293;SDS011;4185;41.506;24.938;2022-10-16T06:16:32;10.90;;;8.60;;
8293;SDS011;4185;41.506;24.938;2022-10-16T06:19:00;10.57;;;8.17;;
8293;SDS011;4185;41.506;24.938;2022-10-16T06:21:29;12.40;;;8.90;;
8293;SDS011;4185;41.506;24.938;2022-10-16T06:23:56;12.90;;;9.40;;
8293;SDS011;4185;41.506;24.938;2022-10-16T06:26:24;18.30;;;12.00;;
8293;SDS011;4185;41.506;24.938;2022-10-16T06:28:54;11.73;;;8.83;;
8293;SDS011;4185;41.506;24.938;2022-10-16T06:31:22;10.50;;;8.20;;
8293;SDS011;4185;41.506;24.938;2022-10-16T06:33:52;10.97;;;8.73;;
8293;SDS011;4185;41.506;24.938;2022-10-16T06:36:20;10.53;;;8.13;;
8293;SDS011;4185;41.506;24.938;2022-10-16T06:38:47;13.53;;;10.17;;
8293;SDS011;4185;41.506;24.938;2022-10-16T06:41:15;9.87;;;8.03;;
8293;SDS011;4185;41.506;24.938;2022-10-16T06:43:42;8.97;;;7.57;;
8293;SDS011;4185;41.506;24.938;2022-10-16T06:46:12;12.97;;;8.07;;
8293;SDS011;4185;41.506;24.938;2022-10-16T06:48:40;10.80;;;8.57;;
8293;SDS011;4185;41.506;24.938;2022-10-16T06:51:08;10.73;;;8.17;;
8293;SDS011;4185;41.506;24.938;2022-10-16T06:53:37;10.07;;;8.60;;
8293;SDS011;4185;41.506;24.938;2022-10-16T06:56:08;12.27;;;8.70;;
8293;SDS011;4185;41.506;24.938;2022-10-16T06:58:36;10.73;;;8.53;;
8293;SDS011;4185;41.506;24.938;2022-10-16T07:01:03;15.73;;;11.37;;
8293;SDS011;4185;41.506;24.938;2022-10-16T07:03:32;13.53;;;9.27;;
8293;SDS011;4185;41.506;24.938;2022-10-16T07:06:01;13.40;;;9.77;;
8293;SDS011;4185;41.506;24.938;2022-10-16T07:08:30;12.53;;;8.57;;
8293;SDS011;4185;41.506;24.938;2022-10-16T07:10:58;12.33;;;9.00;;
8293;SDS011;4185;41.506;24.938;2022-10-16T07:13:25;12.60;;;8.77;;
8293;SDS011;4185;41.506;24.938;2022-10-16T07:15:52;14.00;;;9.17;;
8293;SDS011;4185;41.506;24.938;2022-10-16T07:18:19;12.67;;;9.00;;
8293;SDS011;4185;41.506;24.938;2022-10-16T07:20:48;9.37;;;7.60;;
8293;SDS011;4185;41.506;24.938;2022-10-16T07:23:15;8.53;;;6.83;;
8293;SDS011;4185;41.506;24.938;2022-10-16T07:25:41;11.90;;;8.30;;
8293;SDS011;4185;41.506;24.938;2022-10-16T07:28:08;10.17;;;7.63;;
8293;SDS011;4185;41.506;24.938;2022-10-16T07:30:35;10.23;;;8.20;;
8293;SDS011;4185;41.506;24.938;2022-10-16T07:33:03;9.70;;;7.53;;
8293;SDS011;4185;41.506;24.938;2022-10-16T07:35:30;12.13;;;7.97;;
8293;SDS011;4185;41.506;24.938;2022-10-16T07:37:58;8.37;;;7.17;;
8293;SDS011;4185;41.506;24.938;2022-10-16T07:40:25;8.43;;;6.57;;
8293;SDS011;4185;41.506;24.938;2022-10-16T07:42:53;12.20;;;8.53;;
8293;SDS011;4185;41.506;24.938;2022-10-16T07:45:19;8.13;;;6.50;;
8293;SDS011;4185;41.506;24.938;2022-10-16T07:47:46;6.73;;;5.53;;
8293;SDS011;4185;41.506;24.938;2022-10-16T07:50:13;7.33;;;5.73;;
8293;SDS011;4185;41.506;24.938;2022-10-16T07:52:40;7.27;;;5.13;;
8293;SDS011;4185;41.506;24.938;2022-10-16T07:55:09;7.63;;;6.30;;
8293;SDS011;4185;41.506;24.938;2022-10-16T07:57:35;6.53;;;5.70;;
8293;SDS011;4185;41.506;24.938;2022-10-16T08:00:02;5.33;;;4.83;;
8293;SDS011;4185;41.506;24.938;2022-10-16T08:02:30;5.37;;;4.73;;
8293;SDS011;4185;41.506;24.938;2022-10-16T08:04:57;5.57;;;4.70;;
8293;SDS011;4185;41.506;24.938;2022-10-16T08:07:24;5.47;;;4.33;;
8293;SDS011;4185;41.506;24.938;2022-10-16T08:09:51;5.93;;;4.20;;
8293;SDS011;4185;41.506;24.938;2022-10-16T08:12:19;6.03;;;4.77;;
8293;SDS011;4185;41.506;24.938;2022-10-16T08:14:46;5.73;;;4.93;;
8293;SDS011;4185;41.506;24.938;2022-10-16T08:17:13;5.30;;;4.20;;
8293;SDS011;4185;41.506;24.938;2022-10-16T08:19:43;5.20;;;4.40;;
8293;SDS011;4185;41.506;24.938;2022-10-16T08:22:10;5.70;;;4.90;;
8293;SDS011;4185;41.506;24.938;2022-10-16T08:24:37;4.83;;;4.20;;
8293;SDS011;4185;41.506;24.938;2022-10-16T08:27:04;5.47;;;4.90;;
8293;SDS011;4185;41.506;24.938;2022-10-16T08:29:33;4.83;;;4.33;;
8293;SDS011;4185;41.506;24.938;2022-10-16T08:32:00;5.67;;;4.30;;
8293;SDS011;4185;41.506;24.938;2022-10-16T08:34:27;3.90;;;3.50;;
8293;SDS011;4185;41.506;24.938;2022-10-16T08:36:53;3.87;;;3.47;;
8293;SDS011;4185;41.506;24.938;2022-10-16T08:39:20;4.03;;;3.33;;
8293;SDS011;4185;41.506;24.938;2022-10-16T08:41:57;4.23;;;3.83;;
8293;SDS011;4185;41.506;24.938;2022-10-16T08:44:50;4.00;;;3.60;;
8293;SDS011;4185;41.506;24.938;2022-10-16T08:47:33;3.93;;;3.50;;
8293;SDS011;4185;41.506;24.938;2022-10-16T08:50:09;7.57;;;5.37;;
8293;SDS011;4185;41.506;24.938;2022-10-16T08:52:38;9.27;;;7.23;;
8293;SDS011;4185;41.506;24.938;2022-10-16T08:55:08;4.40;;;3.40;;
8293;SDS011;4185;41.506;24.938;2022-10-16T08:57:49;7.70;;;3.73;;
8293;SDS011;4185;41.506;24.938;2022-10-16T09:00:17;4.93;;;4.10;;
8293;SDS011;4185;41.506;24.938;2022-10-16T09:02:46;4.47;;;3.47;;
8293;SDS011;4185;41.506;24.938;2022-10-16T09:05:27;4.87;;;4.10;;
8293;SDS011;4185;41.506;24.938;2022-10-16T09:08:17;4.43;;;3.57;;
8293;SDS011;4185;41.506;24.938;2022-10-16T09:10:55;4.70;;;4.03;;
8293;SDS011;4185;41.506;24.938;2022-10-16T09:13:27;6.87;;;4.07;;
8293;SDS011;4185;41.506;24.938;2022-10-16T09:16:01;5.37;;;3.63;;
8293;SDS011;4185;41.506;24.938;2022-10-16T09:18:40;4.97;;;3.40;;
8293;SDS011;4185;41.506;24.938;2022-10-16T09:21:14;6.53;;;3.73;;
8293;SDS011;4185;41.506;24.938;2022-10-16T09:23:44;4.43;;;3.53;;
8293;SDS011;4185;41.506;24.938;2022-10-16T09:26:13;4.13;;;3.73;;
8293;SDS011;4185;41.506;24.938;2022-10-16T09:28:43;4.57;;;3.53;;
8293;SDS011;4185;41.506;24.938;2022-10-16T09:31:13;5.77;;;3.83;;
8293;SDS011;4185;41.506;24.938;2022-10-16T09:33:43;4.03;;;3.60;;
8293;SDS011;4185;41.506;24.938;2022-10-16T09:36:14;6.03;;;4.30;;
8293;SDS011;4185;41.506;24.938;2022-10-16T09:38:42;4.43;;;4.00;;
8293;SDS011;4185;41.506;24.938;2022-10-16T09:41:13;5.37;;;3.53;;
8293;SDS011;4185;41.506;24.938;2022-10-16T09:43:46;6.77;;;3.60;;
8293;SDS011;4185;41.506;24.938;2022-10-16T09:46:26;4.67;;;3.80;;
8293;SDS011;4185;41.506;24.938;2022-10-16T09:48:54;7.00;;;3.70;;
8293;SDS011;4185;41.506;24.938;2022-10-16T09:51:24;4.07;;;3.70;;
8293;SDS011;4185;41.506;24.938;2022-10-16T09:53:54;4.90;;;3.40;;
8293;SDS011;4185;41.506;24.938;2022-10-16T09:56:23;6.73;;;3.43;;
8293;SDS011;4185;41.506;24.938;2022-10-16T09:58:52;4.60;;;3.33;;
8293;SDS011;4185;41.506;24.938;2022-10-16T10:01:20;5.20;;;3.50;;
8293;SDS011;4185;41.506;24.938;2022-10-16T10:03:50;3.83;;;3.40;;
8293;SDS011;4185;41.506;24.938;2022-10-16T10:06:24;7.30;;;3.67;;
8293;SDS011;4185;41.506;24.938;2022-10-16T10:08:58;3.60;;;3.20;;
8293;SDS011;4185;41.506;24.938;2022-10-16T10:11:41;4.60;;;3.43;;
8293;SDS011;4185;41.506;24.938;2022-10-16T10:14:21;3.90;;;3.03;;
8293;SDS011;4185;41.506;24.938;2022-10-16T10:16:51;4.83;;;3.50;;
8293;SDS011;4185;41.506;24.938;2022-10-16T10:19:28;3.87;;;3.47;;
8293;SDS011;4185;41.506;24.938;2022-10-16T10:21:55;4.73;;;3.50;;
8293;SDS011;4185;41.506;24.938;2022-10-16T10:24:22;4.47;;;4.03;;
8293;SDS011;4185;41.506;24.938;2022-10-16T10:26:51;4.07;;;3.43;;
8293;SDS011;4185;41.506;24.938;2022-10-16T10:29:35;5.10;;;4.43;;
8293;SDS011;4185;41.506;24.938;2022-10-16T10:32:17;3.90;;;3.50;;
8293;SDS011;4185;41.506;24.938;2022-10-16T10:34:58;4.57;;;3.30;;
8293;SDS011;4185;41.506;24.938;2022-10-16T10:37:41;4.67;;;3.30;;
8293;SDS011;4185;41.506;24.938;2022-10-16T10:40:22;5.90;;;3.93;;
8293;SDS011;4185;41.506;24.938;2022-10-16T10:42:57;5.57;;;3.63;;
8293;SDS011;4185;41.506;24.938;2022-10-16T10:45:35;3.83;;;3.50;;
8293;SDS011;4185;41.506;24.938;2022-10-16T10:48:14;6.77;;;6.07;;
8293;SDS011;4185;41.506;24.938;2022-10-16T10:50:54;5.03;;;4.10;;
8293;SDS011;4185;41.506;24.938;2022-10-16T10:53:27;7.37;;;6.47;;
8293;SDS011;4185;41.506;24.938;2022-10-16T10:56:06;7.90;;;4.03;;
8293;SDS011;4185;41.506;24.938;2022-10-16T10:58:50;10.70;;;8.73;;
8293;SDS011;4185;41.506;24.938;2022-10-16T11:01:26;6.53;;;5.83;;
8293;SDS011;4185;41.506;24.938;2022-10-16T11:04:05;4.03;;;3.20;;
8293;SDS011;4185;41.506;24.938;2022-10-16T11:06:51;5.00;;;3.40;;
8293;SDS011;4185;41.506;24.938;2022-10-16T11:09:23;4.80;;;3.30;;
8293;SDS011;4185;41.506;24.938;2022-10-16T11:11:54;5.57;;;4.67;;
8293;SDS011;4185;41.506;24.938;2022-10-16T11:14:28;3.47;;;3.10;;
8293;SDS011;4185;41.506;24.938;2022-10-16T11:17:01;3.10;;;2.80;;
8293;SDS011;4185;41.506;24.938;2022-10-16T11:19:35;4.50;;;3.57;;
8293;SDS011;4185;41.506;24.938;2022-10-16T11:22:09;3.77;;;3.33;;
8293;SDS011;4185;41.506;24.938;2022-10-16T11:24:42;4.53;;;3.33;;
8293;SDS011;4185;41.506;24.938;2022-10-16T11:27:15;4.50;;;3.10;;
8293;SDS011;4185;41.506;24.938;2022-10-16T11:29:47;4.67;;;2.87;;
8293;SDS011;4185;41.506;24.938;2022-10-16T11:32:22;3.80;;;2.97;;
8293;SDS011;4185;41.506;24.938;2022-10-16T11:34:52;4.40;;;3.43;;
8293;SDS011;4185;41.506;24.938;2022-10-16T11:37:25;4.73;;;3.13;;
8293;SDS011;4185;41.506;24.938;2022-10-16T11:39:58;4.17;;;3.40;;
8293;SDS011;4185;41.506;24.938;2022-10-16T11:42:37;7.60;;;2.90;;
8293;SDS011;4185;41.506;24.938;2022-10-16T11:45:13;4.50;;;3.10;;
8293;SDS011;4185;41.506;24.938;2022-10-16T11:47:51;3.60;;;2.83;;
8293;SDS011;4185;41.506;24.938;2022-10-16T11:50:28;3.73;;;3.20;;
8293;SDS011;4185;41.506;24.938;2022-10-16T11:53:00;4.33;;;3.00;;
8293;SDS011;4185;41.506;24.938;2022-10-16T11:55:32;5.17;;;3.43;;
8293;SDS011;4185;41.506;24.938;2022-10-16T11:58:03;4.70;;;3.30;;
8293;SDS011;4185;41.506;24.938;2022-10-16T12:00:37;3.83;;;3.30;;
8293;SDS011;4185;41.506;24.938;2022-10-16T12:03:11;5.00;;;3.37;;
8293;SDS011;4185;41.506;24.938;2022-10-16T12:05:50;7.33;;;3.60;;
8293;SDS011;4185;41.506;24.938;2022-10-16T12:08:25;5.60;;;4.07;;
8293;SDS011;4185;41.506;24.938;2022-10-16T12:10:53;4.03;;;3.23;;
8293;SDS011;4185;41.506;24.938;2022-10-16T12:13:30;3.70;;;3.17;;
8293;SDS011;4185;41.506;24.938;2022-10-16T12:16:05;4.23;;;3.77;;
8293;SDS011;4185;41.506;24.938;2022-10-16T12:18:46;4.33;;;3.43;;
8293;SDS011;4185;41.506;24.938;2022-10-16T12:21:14;3.53;;;2.97;;
8293;SDS011;4185;41.506;24.938;2022-10-16T12:23:48;4.77;;;3.50;;
8293;SDS011;4185;41.506;24.938;2022-10-16T12:26:23;4.30;;;3.13;;
8293;SDS011;4185;41.506;24.938;2022-10-16T12:28:51;5.07;;;3.50;;
8293;SDS011;4185;41.506;24.938;2022-10-16T12:31:19;5.33;;;3.70;;
8293;SDS011;4185;41.506;24.938;2022-10-16T12:36:30;4.17;;;3.77;;
8293;SDS011;4185;41.506;24.938;2022-10-16T12:39:00;7.30;;;3.40;;
8293;SDS011;4185;41.506;24.938;2022-10-16T12:41:29;5.27;;;4.17;;
8293;SDS011;4185;41.506;24.938;2022-10-16T12:43:57;4.87;;;4.37;;
8293;SDS011;4185;41.506;24.938;2022-10-16T12:46:37;4.63;;;3.70;;
8293;SDS011;4185;41.506;24.938;2022-10-16T12:49:06;4.07;;;3.50;;
8293;SDS011;4185;41.506;24.938;2022-10-16T12:51:46;6.17;;;4.17;;
8293;SDS011;4185;41.506;24.938;2022-10-16T12:54:15;4.17;;;3.77;;
8293;SDS011;4185;41.506;24.938;2022-10-16T12:56:48;7.23;;;4.70;;
8293;SDS011;4185;41.506;24.938;2022-10-16T12:59:29;4.07;;;3.67;;
8293;SDS011;4185;41.506;24.938;2022-10-16T13:02:08;4.03;;;3.63;;
8293;SDS011;4185;41.506;24.938;2022-10-16T13:04:54;4.30;;;3.70;;
8293;SDS011;4185;41.506;24.938;2022-10-16T13:07:47;4.53;;;3.60;;
8293;SDS011;4185;41.506;24.938;2022-10-16T13:10:23;4.33;;;3.30;;
8293;SDS011;4185;41.506;24.938;2022-10-16T13:15:57;4.67;;;3.70;;
8293;SDS011;4185;41.506;24.938;2022-10-16T13:18:33;5.27;;;3.73;;
8293;SDS011;4185;41.506;24.938;2022-10-16T13:21:18;4.17;;;3.47;;
8293;SDS011;4185;41.506;24.938;2022-10-16T13:23:59;4.30;;;3.90;;
8293;SDS011;4185;41.506;24.938;2022-10-16T13:26:38;5.63;;;4.40;;
8293;SDS011;4185;41.506;24.938;2022-10-16T13:29:12;5.73;;;4.20;;
8293;SDS011;4185;41.506;24.938;2022-10-16T13:31:39;7.60;;;4.37;;
8293;SDS011;4185;41.506;24.938;2022-10-16T13:34:10;6.13;;;4.60;;
8293;SDS011;4185;41.506;24.938;2022-10-16T13:36:43;5.70;;;3.97;;
8293;SDS011;4185;41.506;24.938;2022-10-16T13:39:12;5.37;;;4.50;;
8293;SDS011;4185;41.506;24.938;2022-10-16T13:41:44;5.50;;;4.33;;
8293;SDS011;4185;41.506;24.938;2022-10-16T13:44:13;6.30;;;4.47;;
8293;SDS011;4185;41.506;24.938;2022-10-16T13:46:44;8.63;;;5.13;;
8293;SDS011;4185;41.506;24.938;2022-10-16T13:49:12;5.40;;;4.90;;
8293;SDS011;4185;41.506;24.938;2022-10-16T13:51:40;5.28;;;4.70;;
8293;SDS011;4185;41.506;24.938;2022-10-16T13:54:09;8.35;;;5.60;;
8293;SDS011;4185;41.506;24.938;2022-10-16T13:56:38;6.38;;;5.18;;
8293;SDS011;4185;41.506;24.938;2022-10-16T13:59:20;5.80;;;4.80;;
8293;SDS011;4185;41.506;24.938;2022-10-16T14:01:50;5.57;;;5.07;;
8293;SDS011;4185;41.506;24.938;2022-10-16T14:04:20;5.70;;;5.15;;
8293;SDS011;4185;41.506;24.938;2022-10-16T14:06:49;4.80;;;4.35;;
8293;SDS011;4185;41.506;24.938;2022-10-16T14:09:20;7.60;;;5.00;;
8293;SDS011;4185;41.506;24.938;2022-10-16T14:11:51;6.95;;;5.68;;
8293;SDS011;4185;41.506;24.938;2022-10-16T14:14:23;4.82;;;4.43;;
8293;SDS011;4185;41.506;24.938;2022-10-16T14:16:50;6.25;;;5.57;;
8293;SDS011;4185;41.506;24.938;2022-10-16T14:19:18;6.60;;;4.67;;
8293;SDS011;4185;41.506;24.938;2022-10-16T14:21:48;6.30;;;4.93;;
8293;SDS011;4185;41.506;24.938;2022-10-16T14:24:23;7.30;;;5.17;;
8293;SDS011;4185;41.506;24.938;2022-10-16T14:26:53;5.57;;;4.60;;
8293;SDS011;4185;41.506;24.938;2022-10-16T14:29:23;8.50;;;6.60;;
8293;SDS011;4185;41.506;24.938;2022-10-16T14:31:54;7.27;;;5.60;;
8293;SDS011;4185;41.506;24.938;2022-10-16T14:34:26;5.67;;;5.03;;
8293;SDS011;4185;41.506;24.938;2022-10-16T14:36:58;14.57;;;8.37;;
8293;SDS011;4185;41.506;24.938;2022-10-16T14:39:29;9.13;;;5.67;;
8293;SDS011;4185;41.506;24.938;2022-10-16T14:41:56;6.93;;;4.80;;
8293;SDS011;4185;41.506;24.938;2022-10-16T14:44:28;7.93;;;5.03;;
8293;SDS011;4185;41.506;24.938;2022-10-16T14:46:58;6.30;;;5.40;;
8293;SDS011;4185;41.506;24.938;2022-10-16T14:49:34;8.73;;;5.20;;
8293;SDS011;4185;41.506;24.938;2022-10-16T14:52:01;5.50;;;4.70;;
8293;SDS011;4185;41.506;24.938;2022-10-16T14:54:28;9.30;;;5.60;;
8293;SDS011;4185;41.506;24.938;2022-10-16T14:56:55;6.90;;;5.60;;
8293;SDS011;4185;41.506;24.938;2022-10-16T14:59:25;6.30;;;4.77;;
8293;SDS011;4185;41.506;24.938;2022-10-16T15:01:58;7.33;;;5.20;;
8293;SDS011;4185;41.506;24.938;2022-10-16T15:04:25;11.63;;;6.23;;
8293;SDS011;4185;41.506;24.938;2022-10-16T15:06:52;8.30;;;5.97;;
8293;SDS011;4185;41.506;24.938;2022-10-16T15:09:19;8.40;;;6.17;;
8293;SDS011;4185;41.506;24.938;2022-10-16T15:11:46;10.73;;;6.80;;
8293;SDS011;4185;41.506;24.938;2022-10-16T15:14:12;9.77;;;7.10;;
8293;SDS011;4185;41.506;24.938;2022-10-16T15:16:41;13.93;;;8.30;;
8293;SDS011;4185;41.506;24.938;2022-10-16T15:19:08;8.57;;;6.93;;
8293;SDS011;4185;41.506;24.938;2022-10-16T15:21:35;9.53;;;6.13;;